createdAt,value
2023-07-28T03:01:47.941Z,15.84
2023-07-28T03:04:14.721Z,15.83
2023-07-28T03:06:41.420Z,15.84
2023-07-28T03:09:08.187Z,15.84
2023-07-28T03:11:34.946Z,15.87
2023-07-28T03:14:01.649Z,15.87
2023-07-28T03:16:28.409Z,15.85
2023-07-28T03:18:55.177Z,15.87
2023-07-28T03:21:21.938Z,15.84
2023-07-28T03:23:48.618Z,15.83
2023-07-28T03:26:15.353Z,15.79
2023-07-28T03:28:42.122Z,15.74
2023-07-28T03:31:08.891Z,15.72
2023-07-28T03:33:35.577Z,15.65
2023-07-28T03:36:02.382Z,15.61
2023-07-28T03:38:29.073Z,15.59
2023-07-28T03:40:56.113Z,15.57
2023-07-28T03:43:23.161Z,15.56
2023-07-28T03:45:49.894Z,15.56
2023-07-28T03:48:16.633Z,15.54
2023-07-28T03:50:43.336Z,15.52
2023-07-28T03:53:10.031Z,15.55
2023-07-28T03:55:36.866Z,15.53
2023-07-28T03:58:04.077Z,15.49
2023-07-28T04:00:31.074Z,15.46
2023-07-28T04:02:58.131Z,15.45
2023-07-28T04:05:26.015Z,15.42
2023-07-28T04:07:52.793Z,15.40
2023-07-28T04:10:19.633Z,15.40
2023-07-28T04:12:46.337Z,15.42
2023-07-28T04:15:13.008Z,15.40
2023-07-28T04:17:39.773Z,15.40
2023-07-28T04:20:07.484Z,15.43
2023-07-28T04:22:34.248Z,15.41
2023-07-28T04:25:01.150Z,15.41
2023-07-28T04:27:31.501Z,15.36
2023-07-28T04:29:59.774Z,15.35
2023-07-28T04:32:27.338Z,15.32
2023-07-28T04:34:54.779Z,15.27
2023-07-28T04:37:21.523Z,15.25
2023-07-28T04:39:48.475Z,15.22
2023-07-28T04:42:15.230Z,15.23
2023-07-28T04:44:42.012Z,15.25
2023-07-28T04:47:08.763Z,15.28
2023-07-28T04:49:35.522Z,15.29
2023-07-28T04:52:02.209Z,15.31
2023-07-28T04:54:28.938Z,15.33
2023-07-28T04:56:55.665Z,15.36
2023-07-28T04:59:22.408Z,15.38
2023-07-28T05:01:49.185Z,15.45
2023-07-28T05:04:15.917Z,15.50
2023-07-28T05:06:42.687Z,15.50
2023-07-28T05:09:10.360Z,15.54
2023-07-28T05:11:37.233Z,15.56
2023-07-28T05:14:07.207Z,15.58
2023-07-28T05:16:34.206Z,15.62
2023-07-28T05:19:01.104Z,15.64
2023-07-28T05:21:27.899Z,15.67
2023-07-28T05:23:54.538Z,15.70
2023-07-28T05:26:21.240Z,15.70
2023-07-28T05:28:47.944Z,15.73
2023-07-28T05:31:16.719Z,15.75
2023-07-28T05:33:43.594Z,15.75
2023-07-28T05:36:10.301Z,15.77
2023-07-28T05:38:37.154Z,15.79
2023-07-28T05:41:04.962Z,15.79
2023-07-28T05:43:32.367Z,15.77
2023-07-28T05:46:00.976Z,15.76
2023-07-28T05:48:27.874Z,15.73
2023-07-28T05:50:54.909Z,15.65
2023-07-28T05:53:22.721Z,15.59
2023-07-28T05:55:50.011Z,15.56
2023-07-28T05:58:16.796Z,15.58
2023-07-28T06:00:43.534Z,15.58
2023-07-28T06:03:13.519Z,15.60
2023-07-28T06:05:44.148Z,15.61
2023-07-28T06:08:11.190Z,15.62
2023-07-28T06:10:38.596Z,15.64
2023-07-28T06:13:05.433Z,15.66
2023-07-28T06:15:32.480Z,15.67
2023-07-28T06:17:59.197Z,15.68
2023-07-28T06:20:25.974Z,15.68
2023-07-28T06:22:52.775Z,15.73
2023-07-28T06:25:19.477Z,15.74
2023-07-28T06:27:46.240Z,15.73
2023-07-28T06:30:13.015Z,15.75
2023-07-28T06:32:40.070Z,15.74
2023-07-28T06:35:10.532Z,15.75
2023-07-28T06:37:38.911Z,15.76
2023-07-28T06:40:07.337Z,15.79
2023-07-28T06:42:35.516Z,15.82
2023-07-28T06:45:03.618Z,15.87
2023-07-28T06:47:30.677Z,15.91
2023-07-28T06:49:57.424Z,15.98
2023-07-28T06:52:24.134Z,16.10
2023-07-28T06:54:50.765Z,16.21
2023-07-28T06:57:17.443Z,16.27
2023-07-28T06:59:44.274Z,16.34
2023-07-28T07:02:11.581Z,16.34
2023-07-28T07:04:38.444Z,16.30
2023-07-28T07:07:05.404Z,16.27
2023-07-28T07:09:32.170Z,16.27
2023-07-28T07:11:59.005Z,16.25
2023-07-28T07:14:25.772Z,16.30
2023-07-28T07:16:52.493Z,16.39
2023-07-28T07:19:19.493Z,16.52
2023-07-28T07:21:46.381Z,16.70
2023-07-28T07:24:14.856Z,16.91
2023-07-28T07:26:41.951Z,17.10
2023-07-28T07:29:11.562Z,17.29
2023-07-28T07:31:38.438Z,17.49
2023-07-28T07:34:05.927Z,17.63
2023-07-28T07:36:32.712Z,17.79
2023-07-28T07:38:59.824Z,17.93
2023-07-28T07:41:26.802Z,18.14
2023-07-28T07:43:55.436Z,18.27
2023-07-28T07:46:22.142Z,18.37
2023-07-28T07:48:49.242Z,18.45
2023-07-28T07:51:16.483Z,18.55
2023-07-28T07:53:43.202Z,18.63
2023-07-28T07:56:10.895Z,18.68
2023-07-28T07:58:38.125Z,18.77
2023-07-28T08:01:05.640Z,18.79
2023-07-28T08:03:37.287Z,18.70
2023-07-28T08:06:05.126Z,18.64
2023-07-28T08:08:32.428Z,18.68
2023-07-28T08:10:59.245Z,18.73
2023-07-28T08:13:27.263Z,18.80
2023-07-28T08:15:53.979Z,18.85
2023-07-28T08:18:20.829Z,18.95
2023-07-28T08:20:47.723Z,19.03
2023-07-28T08:23:14.500Z,19.11
2023-07-28T08:25:41.330Z,19.12
2023-07-28T08:28:08.110Z,19.19
2023-07-28T08:30:34.954Z,19.28
2023-07-28T08:33:03.490Z,19.38
2023-07-28T08:35:30.347Z,19.53
2023-07-28T08:37:57.246Z,19.73
2023-07-28T08:40:25.759Z,20.19
2023-07-28T08:42:52.685Z,20.38
2023-07-28T08:45:20.495Z,20.33
2023-07-28T08:47:47.357Z,20.19
2023-07-28T08:50:14.289Z,20.07
2023-07-28T08:52:41.077Z,19.99
2023-07-28T08:55:10.805Z,19.87
2023-07-28T08:57:37.594Z,19.80
2023-07-28T09:00:14.580Z,19.82
2023-07-28T09:02:42.612Z,19.84
2023-07-28T09:05:18.833Z,19.95
2023-07-28T09:07:45.857Z,20.05
2023-07-28T09:10:13.065Z,20.08
2023-07-28T09:12:50.334Z,20.09
2023-07-28T09:15:20.221Z,20.09
2023-07-28T09:17:47.493Z,20.02
2023-07-28T09:20:18.212Z,19.91
2023-07-28T09:22:45.495Z,19.82
2023-07-28T09:25:17.389Z,19.76
2023-07-28T09:27:52.552Z,19.70
2023-07-28T09:30:20.680Z,19.82
2023-07-28T09:32:52.297Z,20.10
2023-07-28T09:35:19.826Z,20.26
2023-07-28T09:37:50.021Z,20.38
2023-07-28T09:40:22.490Z,20.31
2023-07-28T09:42:53.594Z,20.36
2023-07-28T09:45:37.255Z,20.49
2023-07-28T09:48:10.755Z,20.57
2023-07-28T09:50:39.907Z,20.65
2023-07-28T09:53:09.396Z,20.57
2023-07-28T09:55:37.082Z,20.48
2023-07-28T09:58:09.126Z,20.26
2023-07-28T10:00:36.501Z,20.12
2023-07-28T10:03:04.738Z,20.11
2023-07-28T10:05:31.785Z,20.08
2023-07-28T10:07:59.049Z,20.03
2023-07-28T10:10:28.053Z,20.11
2023-07-28T10:12:58.714Z,20.27
2023-07-28T10:15:33.626Z,20.74
2023-07-28T10:18:01.985Z,21.19
2023-07-28T10:20:37.130Z,22.10
2023-07-28T10:23:08.886Z,22.96
2023-07-28T10:25:38.153Z,23.76
2023-07-28T10:28:07.389Z,24.52
2023-07-28T10:30:39.424Z,25.05
2023-07-28T10:33:06.689Z,25.30
2023-07-28T10:35:35.395Z,25.59
2023-07-28T10:38:32.214Z,25.65
2023-07-28T10:41:19.855Z,25.72
2023-07-28T10:43:47.592Z,25.69
2023-07-28T10:46:18.958Z,25.55
2023-07-28T10:48:47.710Z,25.41
2023-07-28T10:51:29.582Z,25.21
2023-07-28T10:53:57.363Z,24.97
2023-07-28T10:56:24.783Z,24.91
2023-07-28T10:59:05.850Z,24.78
2023-07-28T11:01:38.132Z,24.62
2023-07-28T11:04:16.379Z,24.36
2023-07-28T11:06:45.450Z,24.08
2023-07-28T11:09:13.726Z,24.00
2023-07-28T11:11:43.410Z,23.91
2023-07-28T11:16:42.447Z,23.68
2023-07-28T11:19:11.952Z,23.58
2023-07-28T11:21:40.026Z,23.53
2023-07-28T11:24:09.456Z,23.54
2023-07-28T11:26:37.975Z,23.48
2023-07-28T11:29:05.978Z,23.27
2023-07-28T11:31:34.370Z,23.20
2023-07-28T11:34:02.515Z,23.18
2023-07-28T11:36:32.134Z,23.09
2023-07-28T11:39:01.438Z,23.01
2023-07-28T11:41:29.434Z,22.97
2023-07-28T11:43:56.684Z,23.01
2023-07-28T11:46:41.252Z,23.02
2023-07-28T11:49:23.015Z,22.94
2023-07-28T11:51:50.659Z,22.96
2023-07-28T11:54:21.346Z,23.15
2023-07-28T11:56:49.564Z,23.24
2023-07-28T11:59:19.023Z,23.32
2023-07-28T12:07:18.333Z,23.15
2023-07-28T12:12:26.920Z,23.35
2023-07-28T12:18:52.711Z,23.42
2023-07-28T12:20:17.160Z,23.44
2023-07-28T12:22:47.180Z,23.43
2023-07-28T12:25:14.173Z,23.42
2023-07-28T12:27:41.046Z,23.42
2023-07-28T12:32:43.635Z,23.63
2023-07-28T12:38:42.021Z,23.64
2023-07-28T12:48:24.808Z,23.91
2023-07-28T12:51:03.879Z,23.71
2023-07-28T12:53:30.972Z,23.46
2023-07-28T12:56:01.400Z,23.25
2023-07-28T13:03:30.138Z,23.28
2023-07-28T13:05:57.080Z,23.37
2023-07-28T13:13:23.076Z,23.34
2023-07-28T13:15:49.832Z,23.41
2023-07-28T13:18:16.618Z,23.55
2023-07-28T13:20:43.370Z,23.60
2023-07-28T13:23:10.089Z,23.47
2023-07-28T13:25:36.846Z,23.46
2023-07-28T13:28:03.680Z,23.38
2023-07-28T13:30:30.536Z,23.23
2023-07-28T13:32:57.701Z,23.17
2023-07-28T13:35:26.026Z,23.24
2023-07-28T13:37:53.138Z,23.18
2023-07-28T13:40:20.133Z,23.30
2023-07-28T13:42:47.083Z,23.39
2023-07-28T13:45:13.841Z,23.56
2023-07-28T13:47:40.665Z,23.75
2023-07-28T13:50:08.441Z,23.58
2023-07-28T13:52:35.195Z,23.33
2023-07-28T13:57:35.330Z,23.08
2023-07-28T14:00:02.538Z,23.06
2023-07-28T14:02:29.542Z,22.95
2023-07-28T14:04:56.433Z,22.91
2023-07-28T14:07:23.206Z,22.80
2023-07-28T14:09:49.996Z,22.73
2023-07-28T14:12:16.795Z,22.64
2023-07-28T14:14:43.748Z,22.56
2023-07-28T14:17:10.939Z,22.49
2023-07-28T14:19:40.134Z,22.55
2023-07-28T14:22:07.384Z,22.62
2023-07-28T14:24:34.165Z,22.58
2023-07-28T14:27:00.970Z,22.48
2023-07-28T14:29:27.907Z,22.41
2023-07-28T14:31:55.184Z,22.51
2023-07-28T14:34:21.953Z,22.57
2023-07-28T15:12:36.827Z,22.59
2023-07-28T15:15:03.911Z,22.32
2023-07-28T15:17:30.820Z,22.10
2023-07-28T15:19:57.821Z,21.95
2023-07-28T15:22:25.259Z,21.83
2023-07-28T15:24:52.020Z,21.90
2023-07-28T15:27:18.799Z,21.94
2023-07-28T15:29:45.580Z,22.01
2023-07-28T15:32:13.422Z,21.98
2023-07-28T15:34:40.197Z,21.88
2023-07-28T15:37:06.909Z,21.81
2023-07-28T15:39:34.694Z,21.73
2023-07-28T15:42:01.493Z,21.71
2023-07-28T15:44:28.283Z,21.64
2023-07-28T15:46:55.214Z,21.71
2023-07-28T15:49:22.187Z,21.84
2023-07-28T15:51:48.974Z,22.00
2023-07-28T15:54:16.646Z,22.15
2023-07-28T15:56:45.827Z,22.30
2023-07-28T15:59:12.690Z,22.37
2023-07-28T16:01:39.778Z,22.43
2023-07-28T16:04:07.418Z,22.45
2023-07-28T16:06:38.372Z,22.49
2023-07-28T16:11:35.807Z,22.36
2023-07-28T16:14:02.835Z,22.27
2023-07-28T16:16:29.688Z,22.18
2023-07-28T16:18:56.414Z,22.12
2023-07-28T16:21:23.327Z,22.10
2023-07-28T16:23:50.092Z,22.11
2023-07-28T16:26:16.932Z,22.07
2023-07-28T16:28:44.757Z,21.91
2023-07-28T16:31:11.594Z,21.74
2023-07-28T16:33:38.407Z,21.72
2023-07-28T16:36:12.733Z,21.76
2023-07-28T16:38:41.276Z,21.82
2023-07-28T16:41:09.033Z,21.87
2023-07-28T16:43:35.807Z,21.89
2023-07-28T16:46:02.749Z,21.85
2023-07-28T16:48:29.568Z,21.87
2023-07-28T16:50:56.331Z,21.86
2023-07-28T16:53:23.880Z,21.87
2023-07-28T16:55:50.682Z,21.86
2023-07-28T16:58:17.927Z,21.80
2023-07-28T17:00:46.787Z,21.76
2023-07-28T17:03:13.917Z,21.67
2023-07-28T17:05:40.909Z,21.57
2023-07-28T17:08:07.858Z,21.44
2023-07-28T17:10:34.653Z,21.38
2023-07-28T17:13:01.948Z,21.39
2023-07-28T17:15:39.401Z,21.38
2023-07-28T17:18:07.471Z,21.34
2023-07-28T17:20:34.615Z,21.30
2023-07-28T17:23:01.352Z,21.27
2023-07-28T17:25:28.330Z,21.25
2023-07-28T17:27:55.127Z,21.25
2023-07-28T17:30:22.156Z,21.18
2023-07-28T17:32:49.336Z,21.07
2023-07-28T17:35:16.415Z,21.00
2023-07-28T17:37:43.192Z,20.93
2023-07-28T17:40:10.625Z,20.87
2023-07-28T17:42:38.795Z,20.90
2023-07-28T17:45:08.660Z,20.97
2023-07-28T17:47:38.886Z,20.97
2023-07-28T17:50:09.914Z,20.90
2023-07-28T17:52:37.227Z,20.82
2023-07-28T17:55:04.317Z,20.81
2023-07-28T17:57:31.104Z,20.76
2023-07-28T17:59:58.381Z,20.78
2023-07-28T18:02:25.344Z,20.75
2023-07-28T18:04:52.095Z,20.64
2023-07-28T18:07:18.901Z,20.59
2023-07-28T18:09:45.691Z,20.57
2023-07-28T18:12:12.559Z,20.54
2023-07-28T18:14:39.306Z,20.44
2023-07-28T18:17:06.501Z,20.37
2023-07-28T18:19:33.290Z,20.37
2023-07-28T18:22:00.101Z,20.38
2023-07-28T18:24:27.001Z,20.36
2023-07-28T18:26:54.014Z,20.32
2023-07-28T18:29:20.884Z,20.30
2023-07-28T18:31:47.633Z,20.24
2023-07-28T18:34:14.586Z,20.19
2023-07-28T18:36:42.530Z,20.09
2023-07-28T18:39:11.323Z,20.01
2023-07-28T18:41:38.591Z,19.94
2023-07-28T18:44:05.662Z,19.82
2023-07-28T18:46:32.489Z,19.70
2023-07-28T18:48:59.342Z,19.59
2023-07-28T18:51:26.167Z,19.55
2023-07-28T18:53:52.956Z,19.46
2023-07-28T18:56:19.787Z,19.38
2023-07-28T18:58:47.044Z,19.32
2023-07-28T19:01:13.898Z,19.33
2023-07-28T19:03:40.881Z,19.34
2023-07-28T19:06:07.777Z,19.30
2023-07-28T19:08:34.579Z,19.21
2023-07-28T19:11:01.339Z,19.17
2023-07-28T19:13:28.531Z,19.10
2023-07-28T19:15:55.553Z,19.10
2023-07-28T19:18:23.664Z,19.07
2023-07-28T19:20:50.624Z,19.05
2023-07-28T19:23:17.531Z,19.03
2023-07-28T19:25:45.430Z,18.95
2023-07-28T19:28:12.651Z,18.91
2023-07-28T19:30:39.477Z,18.91
2023-07-28T19:33:06.542Z,18.91
2023-07-28T19:35:34.079Z,18.88
2023-07-28T19:38:00.858Z,18.88
2023-07-28T19:40:29.802Z,18.88
2023-07-28T19:42:56.831Z,18.90
2023-07-28T19:45:23.649Z,18.87
2023-07-28T19:47:51.301Z,18.82
2023-07-28T19:50:34.553Z,18.79
2023-07-28T19:53:06.740Z,18.70
2023-07-28T19:55:33.763Z,18.65
2023-07-28T19:58:02.894Z,18.57
2023-07-28T20:00:29.885Z,18.52
2023-07-28T20:02:57.262Z,18.46
2023-07-28T20:05:24.470Z,18.42
2023-07-28T20:07:51.316Z,18.39
2023-07-28T20:10:18.166Z,18.36
2023-07-28T20:12:45.016Z,18.31
2023-07-28T20:15:12.894Z,18.27
2023-07-28T20:17:39.962Z,18.25
2023-07-28T20:20:08.766Z,18.21
2023-07-28T20:22:38.446Z,18.18
2023-07-28T20:25:05.646Z,18.14
2023-07-28T20:27:33.570Z,18.12
2023-07-28T20:30:00.404Z,18.05
2023-07-28T20:32:28.534Z,18.03
2023-07-28T20:34:55.910Z,18.00
2023-07-28T20:37:22.759Z,17.98
2023-07-28T20:39:50.797Z,17.99
2023-07-28T20:42:19.139Z,17.95
2023-07-28T20:44:45.932Z,17.90
2023-07-28T20:47:14.164Z,17.85
2023-07-28T20:49:41.592Z,17.81
2023-07-28T20:52:10.572Z,17.81
2023-07-28T20:54:37.403Z,17.78
2023-07-28T20:57:04.451Z,17.70
2023-07-28T20:59:31.617Z,17.66
2023-07-28T21:01:59.430Z,17.61
2023-07-28T21:04:26.819Z,17.60
2023-07-28T21:06:53.992Z,17.59
2023-07-28T21:09:21.683Z,17.60
2023-07-28T21:11:49.271Z,17.55
2023-07-28T21:14:16.620Z,17.54
2023-07-28T21:16:43.538Z,17.50
2023-07-28T21:19:10.314Z,17.47
2023-07-28T21:21:37.071Z,17.45
2023-07-28T21:24:04.298Z,17.47
2023-07-28T21:26:31.527Z,17.44
2023-07-28T21:28:59.650Z,17.41
2023-07-28T21:31:26.484Z,17.38
2023-07-28T21:33:53.369Z,17.34
2023-07-28T21:36:20.496Z,17.33
2023-07-28T21:38:47.367Z,17.32
2023-07-28T21:41:14.586Z,17.28
2023-07-28T21:43:41.428Z,17.27
2023-07-28T21:46:08.324Z,17.26
2023-07-28T21:48:35.158Z,17.25
2023-07-28T21:51:02.425Z,17.23
2023-07-28T21:53:29.599Z,17.24
2023-07-28T21:55:56.491Z,17.22
2023-07-28T21:58:23.253Z,17.20
2023-07-28T22:00:49.998Z,17.20
2023-07-28T22:03:17.014Z,17.19
2023-07-28T22:05:43.979Z,17.17
2023-07-28T22:08:13.141Z,17.15
2023-07-28T22:10:40.898Z,17.13
2023-07-28T22:13:08.768Z,17.13
2023-07-28T22:15:36.236Z,17.12
2023-07-28T22:18:04.036Z,17.11
2023-07-28T22:20:33.300Z,17.07
2023-07-28T22:23:00.213Z,17.05
2023-07-28T22:25:30.062Z,17.01
2023-07-28T22:27:57.901Z,16.99
2023-07-28T22:30:25.227Z,17.00
2023-07-28T22:32:52.112Z,17.00
2023-07-28T22:35:19.132Z,17.02
2023-07-28T22:37:46.025Z,17.00
2023-07-28T22:40:13.068Z,16.98
2023-07-28T22:42:40.003Z,16.93
2023-07-28T22:45:07.499Z,16.76
2023-07-28T22:47:34.962Z,16.58
2023-07-28T22:50:04.205Z,16.41
2023-07-28T22:52:31.114Z,16.32
2023-07-28T22:55:10.305Z,16.21
2023-07-28T22:57:42.328Z,16.18
2023-07-28T23:00:11.825Z,16.16
2023-07-28T23:02:39.288Z,16.11
2023-07-28T23:05:07.028Z,16.11
2023-07-28T23:07:33.833Z,16.09
2023-07-28T23:10:00.594Z,16.06
2023-07-28T23:12:27.340Z,16.04
2023-07-28T23:14:54.148Z,16.01
2023-07-28T23:17:21.063Z,15.97
2023-07-28T23:19:49.163Z,15.92
2023-07-28T23:22:16.174Z,15.93
2023-07-28T23:24:42.900Z,15.90
2023-07-28T23:27:09.938Z,15.88
2023-07-28T23:29:36.937Z,15.86
2023-07-28T23:32:03.953Z,15.79
2023-07-28T23:34:30.729Z,15.72
2023-07-28T23:36:57.524Z,15.70
2023-07-28T23:39:26.236Z,15.60
2023-07-28T23:41:52.933Z,15.57
2023-07-28T23:44:19.728Z,15.53
2023-07-28T23:46:46.669Z,15.44
2023-07-28T23:49:13.566Z,15.37
2023-07-28T23:51:40.316Z,15.29
2023-07-28T23:54:07.148Z,15.27
2023-07-28T23:56:34.139Z,15.22
2023-07-28T23:59:02.264Z,15.19
